Time;durP1;ratioP1;P1;durP2;ratioP2;P2;SDS_P1;SDS_P2;PMS_P1;PMS_P2;Temp;Humidity;BMP_temperature;BMP_pressure;BME280_temperature;BME280_humidity;BME280_pressure;Samples;Min_cycle;Max_cycle;Signal;HPM_P1;HPM_P2
2021/07/17 00:00:24;;;;;;;26.77;22.87;;;17.80;99.90;;;;;;6240160;23;20430;-83
2021/07/17 00:02:52;;;;;;;28.07;21.97;;;17.80;99.90;;;;;;6238829;23;20412;-83
2021/07/17 00:05:19;;;;;;;26.43;22.13;;;17.80;99.90;;;;;;6239634;23;20431;-84
2021/07/17 00:07:48;;;;;;;29.80;23.00;;;17.70;99.90;;;;;;6239793;23;20407;-84
2021/07/17 00:10:16;;;;;;;27.90;20.13;;;17.80;99.90;;;;;;6239118;23;20438;-84
2021/07/17 00:12:43;;;;;;;30.07;22.70;;;17.80;99.90;;;;;;6238997;23;20470;-83
2021/07/17 00:15:13;;;;;;;27.00;20.67;;;17.80;99.90;;;;;;6238760;23;20427;-84
2021/07/17 00:17:41;;;;;;;29.23;20.40;;;17.80;99.90;;;;;;6240117;23;20391;-84
2021/07/17 00:20:09;;;;;;;27.00;21.77;;;17.80;99.90;;;;;;6239969;23;20414;-84
2021/07/17 00:22:36;;;;;;;26.23;21.80;;;17.80;99.90;;;;;;6238868;23;20405;-84
2021/07/17 00:25:04;;;;;;;27.13;22.50;;;17.80;99.90;;;;;;6239139;23;20421;-84
2021/07/17 00:27:31;;;;;;;26.53;22.60;;;17.70;99.90;;;;;;6238741;23;20415;-83
2021/07/17 00:29:57;;;;;;;33.00;24.87;;;17.70;99.90;;;;;;6238720;23;20501;-84
2021/07/17 00:32:24;;;;;;;31.37;25.20;;;17.70;99.90;;;;;;6238860;23;20407;-84
2021/07/17 00:34:51;;;;;;;36.63;24.63;;;17.70;99.90;;;;;;6239249;23;20434;-84
2021/07/17 00:37:17;;;;;;;33.70;23.90;;;17.60;99.90;;;;;;6239434;23;20418;-83
2021/07/17 00:39:44;;;;;;;32.30;23.87;;;17.50;99.90;;;;;;6238239;23;20475;-83
2021/07/17 00:42:12;;;;;;;30.57;23.20;;;17.60;99.90;;;;;;6238777;23;20387;-83
2021/07/17 00:44:39;;;;;;;32.40;25.00;;;17.50;99.90;;;;;;6238393;23;20498;-83
2021/07/17 00:47:07;;;;;;;27.40;23.90;;;17.50;99.90;;;;;;6238012;23;20411;-83
2021/07/17 00:49:34;;;;;;;29.77;23.43;;;17.50;99.90;;;;;;6237768;23;20441;-84
2021/07/17 00:52:01;;;;;;;30.70;22.37;;;17.50;99.90;;;;;;6237111;23;20421;-83
2021/07/17 00:54:28;;;;;;;34.87;24.47;;;17.50;99.90;;;;;;6238628;23;20436;-84
2021/07/17 00:56:56;;;;;;;34.43;23.70;;;17.40;99.90;;;;;;6238874;23;20410;-83
2021/07/17 00:59:28;;;;;;;30.60;23.00;;;17.50;99.90;;;;;;6238472;23;20410;-83
2021/07/17 01:01:56;;;;;;;32.27;23.70;;;17.50;99.90;;;;;;6238355;23;20399;-83
2021/07/17 01:04:25;;;;;;;29.47;25.33;;;17.50;99.90;;;;;;6237490;23;20433;-84
2021/07/17 01:06:52;;;;;;;32.80;24.80;;;17.50;99.90;;;;;;6237890;23;20788;-84
2021/07/17 01:09:19;;;;;;;29.07;21.30;;;17.50;99.90;;;;;;6237551;23;20405;-84
2021/07/17 01:11:46;;;;;;;25.03;21.40;;;17.50;99.90;;;;;;6237442;23;20909;-83
2021/07/17 01:14:12;;;;;;;29.43;23.07;;;17.50;99.90;;;;;;6237165;23;20411;-84
2021/07/17 01:16:42;;;;;;;29.67;23.10;;;17.50;99.90;;;;;;6237211;23;20406;-83
2021/07/17 01:19:11;;;;;;;30.30;25.37;;;17.50;99.90;;;;;;6237243;23;20413;-84
2021/07/17 01:21:39;;;;;;;29.53;22.83;;;17.50;99.90;;;;;;6237386;23;20425;-84
2021/07/17 01:24:06;;;;;;;33.43;25.17;;;17.50;99.90;;;;;;6238296;23;20407;-84
2021/07/17 01:26:33;;;;;;;32.67;23.57;;;17.50;99.90;;;;;;6237433;23;20416;-84
2021/07/17 01:29:00;;;;;;;25.63;21.63;;;17.50;99.90;;;;;;6236932;23;20452;-84
2021/07/17 01:31:28;;;;;;;27.13;22.93;;;17.50;99.90;;;;;;6237307;23;20457;-84
2021/07/17 01:33:54;;;;;;;27.10;22.67;;;17.40;99.90;;;;;;6236392;23;20418;-83
2021/07/17 01:36:21;;;;;;;28.80;25.70;;;17.40;99.90;;;;;;6238089;23;20470;-83
2021/07/17 01:38:49;;;;;;;29.23;23.43;;;17.40;99.90;;;;;;6237384;23;20478;-84
2021/07/17 01:41:17;;;;;;;31.00;23.77;;;17.40;99.90;;;;;;6236899;23;20405;-84
2021/07/17 01:43:45;;;;;;;30.37;23.23;;;17.40;99.90;;;;;;6236252;23;20409;-83
2021/07/17 01:46:11;;;;;;;31.60;23.83;;;17.50;99.90;;;;;;6237549;23;20470;-83
2021/07/17 01:48:38;;;;;;;26.20;23.33;;;17.50;99.90;;;;;;6237513;23;20413;-83
2021/07/17 01:51:05;;;;;;;27.77;22.60;;;17.40;99.90;;;;;;6236505;23;20427;-83
2021/07/17 01:53:31;;;;;;;31.30;22.67;;;17.40;99.90;;;;;;6236876;23;20403;-84
2021/07/17 01:55:59;;;;;;;31.43;21.57;;;17.50;99.90;;;;;;6237076;23;20434;-84
2021/07/17 01:58:26;;;;;;;30.20;22.93;;;17.50;99.90;;;;;;6237441;23;20421;-83
2021/07/17 02:00:53;;;;;;;29.37;22.20;;;17.50;99.90;;;;;;6236833;23;20429;-83
2021/07/17 02:03:20;;;;;;;28.73;22.23;;;17.50;99.90;;;;;;6237004;23;20411;-83
2021/07/17 02:05:46;;;;;;;28.57;22.77;;;17.50;99.90;;;;;;6236578;23;20421;-83
2021/07/17 02:08:14;;;;;;;28.33;21.83;;;17.50;99.90;;;;;;6236916;23;20414;-84
2021/07/17 02:10:41;;;;;;;31.17;22.60;;;17.50;99.90;;;;;;6236665;23;20450;-83
2021/07/17 02:13:11;;;;;;;26.40;21.53;;;17.50;99.90;;;;;;6236548;23;20408;-83
2021/07/17 02:15:43;;;;;;;27.07;21.53;;;17.50;99.90;;;;;;6235571;23;20426;-83
2021/07/17 02:18:10;;;;;;;30.10;22.60;;;17.50;99.90;;;;;;6236602;23;20422;-84
2021/07/17 02:20:37;;;;;;;28.77;23.20;;;17.40;99.90;;;;;;6237243;23;20417;-83
2021/07/17 02:23:04;;;;;;;28.53;22.57;;;17.40;99.90;;;;;;6236512;23;20404;-84
2021/07/17 02:25:31;;;;;;;29.10;23.33;;;17.30;99.90;;;;;;6236760;23;20422;-84
2021/07/17 02:27:58;;;;;;;29.57;22.80;;;17.40;99.90;;;;;;6236324;23;20425;-84
2021/07/17 02:30:27;;;;;;;26.47;22.47;;;17.40;99.90;;;;;;6236631;23;20453;-84
2021/07/17 02:32:54;;;;;;;31.57;22.57;;;17.40;99.90;;;;;;6236208;23;20462;-83
2021/07/17 02:35:21;;;;;;;28.63;21.40;;;17.40;99.90;;;;;;6236784;23;20428;-84
2021/07/17 02:37:48;;;;;;;33.90;24.87;;;17.40;99.90;;;;;;6237269;23;20406;-84
2021/07/17 02:40:15;;;;;;;27.73;22.07;;;17.40;99.90;;;;;;6235840;23;20409;-84
2021/07/17 02:42:41;;;;;;;25.70;22.87;;;17.40;99.90;;;;;;6235894;23;20479;-83
2021/07/17 02:45:10;;;;;;;28.97;24.93;;;17.30;99.90;;;;;;6235561;23;20439;-84
2021/07/17 02:47:39;;;;;;;33.37;22.90;;;17.30;99.90;;;;;;6236939;23;20415;-84
2021/07/17 02:50:07;;;;;;;27.50;20.70;;;17.40;99.90;;;;;;6236700;23;20506;-84
2021/07/17 02:52:34;;;;;;;30.30;23.27;;;17.40;99.90;;;;;;6235881;23;20748;-84
2021/07/17 02:55:01;;;;;;;29.47;24.03;;;17.30;99.90;;;;;;6236219;23;20437;-83
2021/07/17 02:57:28;;;;;;;25.03;22.30;;;17.30;99.90;;;;;;6235969;23;20487;-84
2021/07/17 02:59:55;;;;;;;24.50;20.47;;;17.20;99.90;;;;;;6236299;23;20406;-84
2021/07/17 03:02:22;;;;;;;29.50;22.77;;;17.20;99.90;;;;;;6236095;23;20408;-84
2021/07/17 03:04:50;;;;;;;29.83;21.40;;;17.20;99.90;;;;;;6236487;23;20427;-84
2021/07/17 03:07:16;;;;;;;26.67;21.50;;;17.20;99.90;;;;;;6237000;23;20416;-84
2021/07/17 03:09:43;;;;;;;29.40;22.10;;;17.20;99.90;;;;;;6235872;23;20406;-83
2021/07/17 03:12:10;;;;;;;31.90;23.60;;;17.20;99.90;;;;;;6235246;23;20893;-83
2021/07/17 03:14:37;;;;;;;28.80;23.00;;;17.20;99.90;;;;;;6235802;23;20487;-84
2021/07/17 03:17:04;;;;;;;27.00;22.87;;;17.10;99.90;;;;;;6236462;23;20414;-83
2021/07/17 03:19:30;;;;;;;29.20;23.20;;;17.10;99.90;;;;;;6235785;23;20482;-84
2021/07/17 03:21:58;;;;;;;25.10;22.47;;;17.10;99.90;;;;;;6234796;23;20409;-84
2021/07/17 03:24:25;;;;;;;31.23;25.53;;;17.10;99.90;;;;;;6236139;23;20494;-84
2021/07/17 03:26:52;;;;;;;27.60;22.53;;;17.20;99.90;;;;;;6236258;23;20418;-84
2021/07/17 03:29:19;;;;;;;29.60;22.87;;;17.10;99.90;;;;;;6236555;23;20478;-83
2021/07/17 03:31:45;;;;;;;27.80;21.17;;;17.10;99.90;;;;;;6235905;23;20771;-84
2021/07/17 03:34:12;;;;;;;32.53;23.23;;;17.10;99.90;;;;;;6235831;23;20408;-84
2021/07/17 03:36:39;;;;;;;37.33;25.07;;;17.20;99.90;;;;;;6236671;23;20416;-84
2021/07/17 03:39:07;;;;;;;29.23;24.63;;;17.20;99.90;;;;;;6236580;23;20414;-84
2021/07/17 03:41:34;;;;;;;29.60;22.93;;;17.20;99.90;;;;;;6236521;23;20422;-84
2021/07/17 03:44:00;;;;;;;25.87;21.77;;;17.20;99.90;;;;;;6237222;23;20412;-84
2021/07/17 03:46:27;;;;;;;31.10;23.23;;;17.10;99.90;;;;;;6237397;23;20484;-83
2021/07/17 03:48:54;;;;;;;32.93;24.57;;;17.20;99.90;;;;;;6236963;23;20401;-84
2021/07/17 03:51:20;;;;;;;27.60;22.10;;;17.10;99.90;;;;;;6235859;23;20456;-83
2021/07/17 03:53:47;;;;;;;32.80;24.60;;;17.10;99.90;;;;;;6236207;23;20413;-83
2021/07/17 03:56:15;;;;;;;27.23;23.57;;;17.10;99.90;;;;;;6236948;23;20450;-84
2021/07/17 03:58:42;;;;;;;32.67;25.07;;;17.10;99.90;;;;;;6236737;23;20410;-83
2021/07/17 04:01:09;;;;;;;27.57;23.40;;;17.20;99.90;;;;;;6236859;23;20477;-84
2021/07/17 04:03:36;;;;;;;27.60;20.43;;;17.20;99.90;;;;;;6236715;23;20391;-84
2021/07/17 04:06:03;;;;;;;27.63;21.33;;;17.20;99.90;;;;;;6236043;23;20430;-84
2021/07/17 04:08:29;;;;;;;32.10;24.60;;;17.20;99.90;;;;;;6237234;23;20402;-83
2021/07/17 04:10:56;;;;;;;31.13;24.43;;;17.20;99.90;;;;;;6237193;23;20446;-84
2021/07/17 04:13:24;;;;;;;31.00;25.30;;;17.20;99.90;;;;;;6236283;23;20470;-83
2021/07/17 04:15:52;;;;;;;27.23;23.20;;;17.30;99.90;;;;;;6236285;23;20436;-84
2021/07/17 04:18:19;;;;;;;27.27;21.43;;;17.30;99.90;;;;;;6236733;23;20854;-84
2021/07/17 04:20:46;;;;;;;30.03;22.10;;;17.30;99.90;;;;;;6236374;23;20413;-84
2021/07/17 04:23:13;;;;;;;28.60;22.57;;;17.30;99.90;;;;;;6236537;23;20480;-84
2021/07/17 04:25:39;;;;;;;31.80;23.43;;;17.30;99.90;;;;;;6236857;23;20427;-84
2021/07/17 04:28:06;;;;;;;27.03;21.57;;;17.40;99.90;;;;;;6236270;23;20694;-84
2021/07/17 04:30:34;;;;;;;28.00;24.30;;;17.40;99.90;;;;;;6236704;23;20442;-84
2021/07/17 04:33:01;;;;;;;30.10;24.00;;;17.40;99.90;;;;;;6236118;23;20413;-83
2021/07/17 04:35:28;;;;;;;25.47;21.57;;;17.50;99.90;;;;;;6236407;23;20432;-84
2021/07/17 04:37:54;;;;;;;27.70;23.30;;;17.50;99.90;;;;;;6237803;23;20418;-84
2021/07/17 04:40:21;;;;;;;25.27;21.80;;;17.50;99.90;;;;;;6238620;23;20414;-84
2021/07/17 04:42:48;;;;;;;27.57;20.80;;;17.50;99.90;;;;;;6237735;23;20405;-84
2021/07/17 04:45:15;;;;;;;24.90;20.00;;;17.50;99.90;;;;;;6237289;23;20443;-84
2021/07/17 04:47:43;;;;;;;25.17;21.03;;;17.50;99.90;;;;;;6238168;23;20462;-84
2021/07/17 04:50:11;;;;;;;29.40;23.00;;;17.50;99.90;;;;;;6238056;23;20409;-84
2021/07/17 04:52:38;;;;;;;27.30;22.13;;;17.60;99.90;;;;;;6238748;23;20470;-84
2021/07/17 04:55:05;;;;;;;28.50;22.30;;;17.50;99.90;;;;;;6238599;23;20447;-84
2021/07/17 04:57:32;;;;;;;29.53;21.03;;;17.50;99.90;;;;;;6237962;23;20478;-84
2021/07/17 04:59:59;;;;;;;27.57;20.73;;;17.50;99.90;;;;;;6238096;23;20493;-84
2021/07/17 05:02:25;;;;;;;29.27;22.30;;;17.50;99.90;;;;;;6238230;23;20409;-84
2021/07/17 05:04:53;;;;;;;27.90;22.70;;;17.50;99.90;;;;;;6238575;23;20436;-84
2021/07/17 05:07:20;;;;;;;24.60;20.60;;;17.40;99.90;;;;;;6238292;23;20486;-84
2021/07/17 05:09:47;;;;;;;26.07;21.33;;;17.50;99.90;;;;;;6237673;23;20412;-84
2021/07/17 05:12:14;;;;;;;23.90;19.50;;;17.50;99.90;;;;;;6237541;23;20445;-84
2021/07/17 05:14:40;;;;;;;23.77;19.80;;;17.50;99.90;;;;;;6238429;23;20483;-84
2021/07/17 05:17:07;;;;;;;24.80;20.43;;;17.60;99.90;;;;;;6238129;23;20487;-84
2021/07/17 05:19:34;;;;;;;26.87;19.37;;;17.50;99.90;;;;;;6238965;23;20409;-84
2021/07/17 05:22:02;;;;;;;23.07;20.60;;;17.60;99.90;;;;;;6237702;23;20403;-84
2021/07/17 05:24:28;;;;;;;24.63;20.87;;;17.60;99.90;;;;;;6238403;23;20432;-84
2021/07/17 05:26:55;;;;;;;24.80;20.40;;;17.60;99.90;;;;;;6238189;23;20410;-84
2021/07/17 05:29:22;;;;;;;27.13;20.23;;;17.60;99.90;;;;;;6238648;23;20417;-84
2021/07/17 05:31:48;;;;;;;23.03;20.63;;;17.60;99.90;;;;;;6238075;23;20440;-84
2021/07/17 05:34:15;;;;;;;28.20;20.77;;;17.60;99.90;;;;;;6237754;23;20426;-84
2021/07/17 05:36:42;;;;;;;25.90;21.20;;;17.60;99.90;;;;;;6237875;23;20414;-84
2021/07/17 05:39:10;;;;;;;21.53;19.30;;;17.60;99.90;;;;;;6237793;23;20411;-84
2021/07/17 05:41:38;;;;;;;23.27;19.77;;;17.60;99.90;;;;;;6238524;23;20490;-84
2021/07/17 05:44:05;;;;;;;28.70;20.37;;;17.60;99.90;;;;;;6237340;23;20961;-84
2021/07/17 05:46:32;;;;;;;27.00;19.00;;;17.70;99.90;;;;;;6237862;23;20454;-83
2021/07/17 05:48:59;;;;;;;25.73;19.20;;;17.70;99.90;;;;;;6236902;23;20407;-84
2021/07/17 05:51:25;;;;;;;25.70;21.20;;;17.70;99.90;;;;;;6237121;23;20458;-84
2021/07/17 05:53:52;;;;;;;29.43;20.90;;;17.60;99.90;;;;;;6237785;23;20414;-84
2021/07/17 05:56:20;;;;;;;23.47;20.53;;;17.70;99.90;;;;;;6237618;23;20428;-84
2021/07/17 05:58:47;;;;;;;23.80;18.10;;;17.70;99.90;;;;;;6238088;23;20432;-84
2021/07/17 06:01:13;;;;;;;22.63;19.97;;;17.80;99.90;;;;;;6238181;23;20400;-84
2021/07/17 06:03:42;;;;;;;24.50;19.57;;;17.70;99.90;;;;;;6237091;23;20922;-84
2021/07/17 06:06:10;;;;;;;23.00;19.10;;;17.90;99.90;;;;;;6237145;23;20488;-84
2021/07/17 06:08:36;;;;;;;21.97;19.50;;;18.00;99.90;;;;;;6237667;23;20411;-84
2021/07/17 06:11:03;;;;;;;24.30;18.77;;;18.10;99.90;;;;;;6238412;23;20446;-84
2021/07/17 06:13:32;;;;;;;22.37;19.50;;;18.10;99.90;;;;;;6237892;23;20411;-84
2021/07/17 06:15:59;;;;;;;23.13;19.57;;;18.10;99.90;;;;;;6237853;23;20496;-84
2021/07/17 06:18:26;;;;;;;22.30;19.17;;;18.20;99.90;;;;;;6237047;23;20405;-84
2021/07/17 06:20:52;;;;;;;25.73;18.70;;;18.30;99.90;;;;;;6237830;23;20419;-84
2021/07/17 06:23:19;;;;;;;21.57;18.57;;;18.30;99.90;;;;;;6237398;23;20422;-84
2021/07/17 06:25:46;;;;;;;24.40;18.97;;;18.30;99.90;;;;;;6237303;23;20439;-84
2021/07/17 06:28:13;;;;;;;22.07;19.83;;;18.30;99.90;;;;;;6236552;23;20762;-84
2021/07/17 06:30:41;;;;;;;20.80;18.10;;;18.40;99.90;;;;;;6237177;23;20408;-85
2021/07/17 06:33:07;;;;;;;20.47;17.80;;;18.40;99.90;;;;;;6235895;23;20452;-86
2021/07/17 06:35:34;;;;;;;20.20;17.57;;;18.50;99.90;;;;;;6236713;23;20435;-84
2021/07/17 06:38:01;;;;;;;21.97;17.70;;;18.40;99.90;;;;;;6236725;23;20407;-84
2021/07/17 06:40:28;;;;;;;19.07;16.90;;;18.50;99.90;;;;;;6237532;23;20484;-85
2021/07/17 06:42:54;;;;;;;21.60;18.40;;;18.60;99.90;;;;;;6236380;23;20415;-83
2021/07/17 06:45:22;;;;;;;22.53;17.70;;;18.60;99.90;;;;;;6237166;23;20479;-84
2021/07/17 06:47:50;;;;;;;25.20;18.23;;;18.60;99.90;;;;;;6237203;23;20471;-84
2021/07/17 06:50:19;;;;;;;22.87;19.47;;;18.40;99.90;;;;;;6237786;23;20414;-84
2021/07/17 06:52:46;;;;;;;20.80;18.20;;;18.40;99.90;;;;;;6236784;23;20445;-84
2021/07/17 06:55:13;;;;;;;22.30;18.63;;;18.40;99.90;;;;;;6237726;23;20428;-83
2021/07/17 06:57:41;;;;;;;21.13;18.80;;;18.40;99.90;;;;;;6237214;23;20412;-84
2021/07/17 07:00:10;;;;;;;24.83;18.57;;;18.40;99.90;;;;;;6237447;23;20398;-83
2021/07/17 07:02:37;;;;;;;23.57;17.40;;;18.40;99.90;;;;;;6237464;23;20412;-83
2021/07/17 07:05:06;;;;;;;19.23;16.73;;;18.30;99.90;;;;;;6238656;23;20447;-84
2021/07/17 07:07:33;;;;;;;24.20;18.80;;;18.40;99.90;;;;;;6237299;23;20400;-84
2021/07/17 07:10:00;;;;;;;29.70;18.77;;;18.40;99.90;;;;;;6237677;23;20401;-84
2021/07/17 07:12:26;;;;;;;24.43;19.43;;;18.40;99.90;;;;;;6237350;23;20446;-84
2021/07/17 07:14:53;;;;;;;21.90;17.83;;;18.40;99.90;;;;;;6237097;23;20917;-86
2021/07/17 07:17:20;;;;;;;25.97;20.10;;;18.40;99.90;;;;;;6237571;23;20414;-85
2021/07/17 07:19:47;;;;;;;25.43;19.93;;;18.50;99.90;;;;;;6236934;23;20407;-84
2021/07/17 07:22:16;;;;;;;21.30;17.63;;;18.50;99.90;;;;;;6237360;23;20510;-84
2021/07/17 07:24:43;;;;;;;22.60;16.90;;;18.50;99.90;;;;;;6237854;23;20431;-83
2021/07/17 07:27:10;;;;;;;27.07;19.97;;;18.50;99.90;;;;;;6238406;23;20430;-83
2021/07/17 07:29:37;;;;;;;23.43;19.20;;;18.50;99.90;;;;;;6238377;23;20412;-84
2021/07/17 07:32:04;;;;;;;21.93;18.87;;;18.50;99.90;;;;;;6237694;23;20492;-84
2021/07/17 07:34:31;;;;;;;26.43;18.50;;;18.50;99.90;;;;;;6238717;23;20427;-83
2021/07/17 07:36:57;;;;;;;22.23;19.93;;;18.50;99.90;;;;;;6237046;23;20407;-83
2021/07/17 07:39:25;;;;;;;26.37;19.93;;;18.50;99.90;;;;;;6237582;23;20411;-84
2021/07/17 07:41:52;;;;;;;20.57;17.63;;;18.60;99.90;;;;;;6237623;23;20415;-83
2021/07/17 07:44:19;;;;;;;24.10;16.73;;;18.70;99.90;;;;;;6235889;23;20840;-80
2021/07/17 07:46:46;;;;;;;17.60;15.30;;;18.90;99.90;;;;;;6216621;23;20407;-80
2021/07/17 07:49:13;;;;;;;18.20;16.30;;;18.90;99.90;;;;;;6216132;23;20422;-81
2021/07/17 07:51:40;;;;;;;22.97;18.87;;;19.00;99.90;;;;;;6216153;23;20470;-82
2021/07/17 07:54:07;;;;;;;18.47;16.67;;;19.00;99.90;;;;;;6218965;23;20436;-80
2021/07/17 07:56:35;;;;;;;20.17;17.40;;;19.20;99.90;;;;;;6220774;23;20407;-80
2021/07/17 07:59:01;;;;;;;18.53;16.63;;;19.20;99.90;;;;;;6220282;23;20786;-80
2021/07/17 08:01:28;;;;;;;20.17;17.73;;;19.30;99.90;;;;;;6219732;23;20409;-80
2021/07/17 08:03:55;;;;;;;20.77;17.90;;;19.30;99.90;;;;;;6219238;23;20408;-80
2021/07/17 08:06:21;;;;;;;28.83;19.40;;;19.30;99.90;;;;;;6219876;23;20416;-80
2021/07/17 08:08:48;;;;;;;24.20;19.50;;;19.30;99.90;;;;;;6220556;23;20495;-81
2021/07/17 08:11:15;;;;;;;23.53;17.97;;;19.20;99.90;;;;;;6219438;23;20412;-80
2021/07/17 08:13:43;;;;;;;21.70;18.70;;;19.10;99.90;;;;;;6221289;23;20408;-81
2021/07/17 08:16:11;;;;;;;25.50;20.20;;;18.90;99.90;;;;;;6220913;23;20431;-80
2021/07/17 08:18:37;;;;;;;23.60;18.87;;;18.90;99.90;;;;;;6221467;23;20439;-80
2021/07/17 08:21:04;;;;;;;27.13;21.30;;;18.90;99.90;;;;;;6221255;23;20404;-80
2021/07/17 08:23:31;;;;;;;23.27;19.80;;;18.90;99.90;;;;;;6221448;23;20411;-80
2021/07/17 08:25:58;;;;;;;22.50;20.07;;;18.90;99.90;;;;;;6220967;23;20432;-82
2021/07/17 08:28:25;;;;;;;23.33;20.83;;;18.90;99.90;;;;;;6221729;23;20408;-80
2021/07/17 08:30:53;;;;;;;29.93;22.83;;;18.80;99.90;;;;;;6221844;23;20418;-80
2021/07/17 08:33:19;;;;;;;23.33;20.90;;;18.80;99.90;;;;;;6222506;23;20448;-80
2021/07/17 08:35:46;;;;;;;27.13;21.27;;;18.70;99.90;;;;;;6221494;23;20424;-80
2021/07/17 08:38:13;;;;;;;20.87;18.83;;;18.70;99.90;;;;;;6220295;23;20415;-80
2021/07/17 08:40:40;;;;;;;24.50;21.80;;;18.70;99.90;;;;;;6220617;23;20415;-80
2021/07/17 08:43:08;;;;;;;26.93;19.77;;;18.80;99.90;;;;;;6220803;23;20407;-80
2021/07/17 08:45:34;;;;;;;29.63;20.60;;;18.70;99.90;;;;;;6221089;23;20439;-79
2021/07/17 08:48:02;;;;;;;21.77;18.60;;;18.70;99.90;;;;;;6221277;23;20413;-80
2021/07/17 08:50:30;;;;;;;26.13;20.60;;;18.70;99.90;;;;;;6220320;23;20412;-80
2021/07/17 08:52:58;;;;;;;26.73;22.60;;;18.70;99.90;;;;;;6220500;23;20492;-80
2021/07/17 08:55:26;;;;;;;25.87;19.67;;;18.80;99.90;;;;;;6220139;23;20424;-80
2021/07/17 08:57:54;;;;;;;24.77;21.90;;;18.80;99.90;;;;;;6220130;23;21190;-80
2021/07/17 09:00:24;;;;;;;27.00;23.57;;;18.80;99.90;;;;;;6220802;23;20414;-80
2021/07/17 09:02:53;;;;;;;26.73;21.17;;;18.80;99.90;;;;;;6219889;23;20396;-80
2021/07/17 09:05:25;;;;;;;25.93;22.97;;;18.90;99.90;;;;;;6220675;23;20757;-80
2021/07/17 09:07:52;;;;;;;27.60;23.23;;;18.90;99.90;;;;;;6220086;23;20758;-79
2021/07/17 09:10:31;;;;;;;24.83;19.70;;;19.00;99.90;;;;;;6220031;23;20408;-80
2021/07/17 09:13:15;;;;;;;22.70;20.00;;;19.00;99.90;;;;;;6218633;23;20444;-78
2021/07/17 09:15:44;;;;;;;23.03;19.20;;;19.00;99.90;;;;;;6219868;23;20770;-80
2021/07/17 09:18:11;;;;;;;24.67;19.80;;;19.20;99.90;;;;;;6220904;23;20419;-78
2021/07/17 09:20:39;;;;;;;21.03;18.43;;;19.40;99.90;;;;;;6221027;23;20422;-78
2021/07/17 09:23:09;;;;;;;24.57;20.43;;;19.60;99.90;;;;;;6219800;23;20405;-78
2021/07/17 09:25:39;;;;;;;23.07;20.00;;;19.80;99.90;;;;;;6219956;23;20503;-78
2021/07/17 09:28:20;;;;;;;23.47;19.03;;;19.90;99.90;;;;;;6220918;23;20624;-78
2021/07/17 09:30:49;;;;;;;23.30;18.23;;;20.20;99.90;;;;;;6220427;23;20895;-78
2021/07/17 09:33:17;;;;;;;21.20;18.83;;;20.30;99.90;;;;;;6220347;23;20511;-78
2021/07/17 09:35:47;;;;;;;19.87;17.77;;;20.40;99.90;;;;;;6220178;23;20430;-78
2021/07/17 09:38:15;;;;;;;21.93;19.53;;;20.40;99.90;;;;;;6220318;23;20397;-78
2021/07/17 09:40:47;;;;;;;22.07;19.87;;;20.40;99.90;;;;;;6220858;23;20409;-79
2021/07/17 09:43:29;;;;;;;20.13;17.03;;;20.50;99.90;;;;;;6220169;23;20405;-79
2021/07/17 09:45:57;;;;;;;19.47;17.27;;;20.50;99.90;;;;;;6220933;23;20436;-79
2021/07/17 09:48:27;;;;;;;19.47;17.27;;;20.50;99.90;;;;;;6221397;23;20409;-79
2021/07/17 09:50:56;;;;;;;20.40;18.17;;;20.50;99.90;;;;;;6220759;23;20397;-79
2021/07/17 09:53:39;;;;;;;18.80;16.90;;;20.60;99.90;;;;;;6221442;23;20441;-78
2021/07/17 09:56:07;;;;;;;19.03;17.03;;;20.70;99.90;;;;;;6222270;23;20437;-79
2021/07/17 09:58:34;;;;;;;17.40;15.70;;;20.70;99.90;;;;;;6221524;23;20416;-79
2021/07/17 10:01:13;;;;;;;22.17;16.67;;;20.70;99.90;;;;;;6221967;23;20416;-79
2021/07/17 10:03:40;;;;;;;20.23;17.87;;;20.80;99.90;;;;;;6222717;23;20392;-80
2021/07/17 10:06:09;;;;;;;19.67;15.90;;;20.60;99.90;;;;;;6223425;23;20429;-80
2021/07/17 10:08:36;;;;;;;20.33;18.20;;;20.50;99.90;;;;;;6222968;23;20771;-80
2021/07/17 10:11:11;;;;;;;22.73;16.97;;;20.30;99.90;;;;;;6222968;23;20926;-80
2021/07/17 10:13:38;;;;;;;19.90;18.00;;;20.20;99.90;;;;;;6223664;23;20458;-80
2021/07/17 10:16:15;;;;;;;21.23;17.07;;;20.10;99.90;;;;;;6223238;23;20421;-80
2021/07/17 10:18:43;;;;;;;20.17;16.27;;;20.20;99.90;;;;;;6223864;23;20459;-80
2021/07/17 10:21:11;;;;;;;20.00;17.30;;;20.10;99.90;;;;;;6224001;23;20413;-80
2021/07/17 10:23:39;;;;;;;21.83;17.13;;;20.10;99.90;;;;;;6222548;23;20405;-80
2021/07/17 10:26:06;;;;;;;18.00;16.20;;;20.30;99.90;;;;;;6223813;23;20430;-80
2021/07/17 10:28:33;;;;;;;19.23;16.67;;;20.40;99.90;;;;;;6223235;23;20409;-80
2021/07/17 10:31:01;;;;;;;20.60;17.80;;;20.70;99.90;;;;;;6223899;23;20429;-80
2021/07/17 10:33:29;;;;;;;20.00;17.33;;;20.90;99.90;;;;;;6223323;23;20442;-80
2021/07/17 10:35:58;;;;;;;21.50;17.53;;;21.00;99.90;;;;;;6223521;23;20429;-80
2021/07/17 10:38:29;;;;;;;19.40;17.37;;;21.20;99.90;;;;;;6223796;23;20409;-80
2021/07/17 10:40:58;;;;;;;19.07;16.33;;;21.30;99.90;;;;;;6223306;23;20400;-79
2021/07/17 10:43:25;;;;;;;21.77;19.10;;;21.40;99.90;;;;;;6223179;23;20913;-80
2021/07/17 10:45:51;;;;;;;20.87;17.77;;;21.40;99.90;;;;;;6222637;23;20464;-79
2021/07/17 10:48:24;;;;;;;17.80;15.97;;;21.50;99.90;;;;;;6222922;23;20410;-80
2021/07/17 10:50:51;;;;;;;21.53;19.37;;;21.50;99.90;;;;;;6225068;23;20413;-80
2021/07/17 10:53:45;;;;;;;20.83;18.87;;;21.50;99.90;;;;;;6223402;23;20444;-80
2021/07/17 10:56:55;;;;;;;20.93;18.07;;;21.50;99.90;;;;;;6224174;23;20437;-80
2021/07/17 10:59:44;;;;;;;21.00;19.00;;;21.40;99.90;;;;;;6192944;23;20421;-80
2021/07/17 11:02:13;;;;;;;19.60;17.60;;;21.30;99.90;;;;;;6222434;23;20406;-80
2021/07/17 11:04:52;;;;;;;20.50;18.33;;;21.20;99.90;;;;;;6221693;23;20429;-80
2021/07/17 11:07:42;;;;;;;20.27;18.33;;;21.30;99.90;;;;;;6223024;23;20393;-80
2021/07/17 11:10:39;;;;;;;20.10;17.97;;;21.20;99.90;;;;;;6222641;23;20450;-80
2021/07/17 11:13:05;;;;;;;20.03;17.77;;;21.10;99.90;;;;;;6222038;23;20430;-80
2021/07/17 11:15:41;;;;;;;19.57;17.50;;;21.10;99.90;;;;;;6223421;23;20436;-80
2021/07/17 11:18:26;;;;;;;18.80;17.00;;;21.10;99.90;;;;;;6223057;23;20393;-80
2021/07/17 11:20:58;;;;;;;18.67;16.80;;;21.00;99.90;;;;;;6223029;23;20456;-80
2021/07/17 11:23:35;;;;;;;19.23;17.27;;;20.90;99.90;;;;;;6222070;23;20389;-79
2021/07/17 11:26:06;;;;;;;21.23;16.83;;;20.90;99.90;;;;;;6222510;23;20425;-80
2021/07/17 11:28:54;;;;;;;20.50;16.83;;;20.90;99.90;;;;;;6222521;23;20497;-79
2021/07/17 11:31:55;;;;;;;18.53;16.50;;;20.90;99.90;;;;;;6222658;23;20412;-80
2021/07/17 11:34:53;;;;;;;20.00;17.97;;;21.10;99.90;;;;;;6223682;23;20536;-82
2021/07/17 11:37:24;;;;;;;20.80;18.77;;;21.10;99.90;;;;;;6225185;23;20390;-82
2021/07/17 11:39:54;;;;;;;17.97;16.17;;;21.20;99.90;;;;;;6225212;23;20398;-81
2021/07/17 11:42:22;;;;;;;18.60;17.00;;;21.20;99.90;;;;;;6223802;23;20386;-81
2021/07/17 11:44:52;;;;;;;19.23;17.30;;;21.20;99.90;;;;;;6223609;23;20436;-81
2021/07/17 11:47:20;;;;;;;16.67;15.00;;;21.30;99.90;;;;;;6224290;23;20412;-81
2021/07/17 11:49:49;;;;;;;18.53;16.60;;;21.20;99.90;;;;;;6226247;23;20404;-80
2021/07/17 11:52:19;;;;;;;20.50;17.10;;;21.20;99.90;;;;;;6226049;23;20415;-80
2021/07/17 11:54:51;;;;;;;17.33;15.87;;;21.30;99.90;;;;;;6226353;23;20449;-80
2021/07/17 11:57:20;;;;;;;19.20;17.30;;;21.30;99.90;;;;;;6225968;23;20403;-80
2021/07/17 11:59:55;;;;;;;21.13;17.70;;;21.30;99.90;;;;;;6224797;23;20408;-79
2021/07/17 12:02:23;;;;;;;16.60;15.03;;;21.40;99.90;;;;;;6223795;23;20388;-82
2021/07/17 12:04:52;;;;;;;18.80;16.07;;;21.50;99.90;;;;;;6224598;23;20430;-83
2021/07/17 12:07:22;;;;;;;18.37;16.70;;;21.60;99.90;;;;;;6224007;23;20409;-80
2021/07/17 12:09:50;;;;;;;19.00;17.13;;;21.70;99.90;;;;;;6221903;23;20419;-81
2021/07/17 12:12:27;;;;;;;17.70;16.00;;;21.80;99.90;;;;;;6221198;23;20406;-81
2021/07/17 12:15:14;;;;;;;19.33;16.77;;;21.80;99.90;;;;;;6220662;23;20652;-81
2021/07/17 12:17:51;;;;;;;17.13;15.30;;;21.80;99.90;;;;;;6224363;23;20708;-82
2021/07/17 12:20:20;;;;;;;18.43;16.53;;;21.70;99.90;;;;;;6226111;23;20393;-82
2021/07/17 12:23:08;;;;;;;17.10;15.60;;;21.70;99.90;;;;;;6225023;23;20412;-81
2021/07/17 12:25:36;;;;;;;17.43;15.80;;;21.60;99.90;;;;;;6224092;23;20435;-81
2021/07/17 12:28:12;;;;;;;17.10;15.03;;;21.60;99.90;;;;;;6224474;23;20415;-78
2021/07/17 12:30:43;;;;;;;16.67;15.07;;;21.50;99.90;;;;;;6223976;23;20399;-78
2021/07/17 12:33:16;;;;;;;15.80;14.17;;;21.70;99.90;;;;;;6224034;23;20436;-80
2021/07/17 12:35:43;;;;;;;15.87;14.53;;;21.90;99.90;;;;;;6223442;23;20745;-79